Time;durP1;ratioP1;P1;durP2;ratioP2;P2;SDS_P1;SDS_P2;PMS_P1;PMS_P2;Temp;Humidity;BMP_temperature;BMP_pressure;BME280_temperature;BME280_humidity;BME280_pressure;Samples;Min_cycle;Max_cycle;Signal;HPM_P1;HPM_P2
2022/04/28 00:00:41;;;;;;;;;;;10.40;99.90;;;;;;5015483;28;19972;-86
2022/04/28 00:03:09;;;;;;;;;;;10.40;99.90;;;;;;4999076;28;19933;-84
2022/04/28 00:05:36;;;;;;;;;;;10.40;99.90;;;;;;4999918;28;19937;-83
2022/04/28 00:08:03;;;;;;;;;;;10.30;99.90;;;;;;4998848;28;19931;-84
2022/04/28 00:10:31;;;;;;;;;;;10.30;99.90;;;;;;5011093;28;19925;-87
2022/04/28 00:13:00;;;;;;;;;;;10.30;99.90;;;;;;5014762;28;19968;-84
2022/04/28 00:15:27;;;;;;;;;;;10.30;99.90;;;;;;4998059;28;19925;-86
2022/04/28 00:17:54;;;;;;;;;;;10.30;99.90;;;;;;5017195;28;19953;-85
2022/04/28 00:20:21;;;;;;;;;;;10.30;99.90;;;;;;5015247;28;19932;-84
2022/04/28 00:22:48;;;;;;;;;;;10.20;99.90;;;;;;5017055;28;19933;-86
2022/04/28 00:25:15;;;;;;;;;;;10.30;99.90;;;;;;4999545;28;19925;-84
2022/04/28 00:27:43;;;;;;;;;;;10.20;99.90;;;;;;5000590;28;19926;-85
2022/04/28 00:30:10;;;;;;;;;;;10.20;99.90;;;;;;4994462;28;20465;-85
2022/04/28 00:32:47;;;;;;;;;;;10.20;99.90;;;;;;5015837;28;20418;-84
2022/04/28 00:35:14;;;;;;;;;;;10.20;99.90;;;;;;5017488;28;20407;-86
2022/04/28 00:37:41;;;;;;;;;;;10.20;99.90;;;;;;4996591;28;19926;-84
2022/04/28 00:40:09;;;;;;;;;;;10.10;99.90;;;;;;5015270;28;20503;-84
2022/04/28 00:42:36;;;;;;;;;;;10.10;99.90;;;;;;4998651;28;19932;-84
2022/04/28 00:45:05;;;;;;;;;;;10.10;99.90;;;;;;5006025;28;19973;-85
2022/04/28 00:52:58;;;;;;;;;;;10.00;99.90;;;;;;4990610;28;19956;-77
2022/04/28 00:55:25;;;;;;;;;;;10.00;99.90;;;;;;4993844;28;19939;-76
2022/04/28 00:57:52;;;;;;;;;;;10.00;99.90;;;;;;4990286;28;20315;-76
2022/04/28 01:00:21;;;;;;;;;;;10.00;99.90;;;;;;5011175;28;19969;-76
2022/04/28 01:02:48;;;;;;;;;;;10.00;99.90;;;;;;4986037;28;19930;-76
2022/04/28 01:05:15;;;;;;;;;;;10.00;99.90;;;;;;5009859;28;19934;-76
2022/04/28 01:07:42;;;;;;;;;;;9.90;99.90;;;;;;5008967;28;19925;-77
2022/04/28 01:10:09;;;;;;;;;;;9.90;99.90;;;;;;4989660;28;19948;-76
2022/04/28 01:12:37;;;;;;;;;;;9.90;99.90;;;;;;4992280;28;20031;-77
2022/04/28 01:15:05;;;;;;;;;;;9.90;99.90;;;;;;4991190;28;19925;-77
2022/04/28 01:17:33;;;;;;;;;;;9.90;99.90;;;;;;4990415;28;19933;-76
2022/04/28 01:20:03;;;;;;;;;;;9.80;99.90;;;;;;4987859;28;20350;-76
2022/04/28 01:22:35;;;;;;;;;;;9.80;99.90;;;;;;5001718;28;19926;-76
2022/04/28 01:25:07;;;;;;;;;;;9.80;99.90;;;;;;4991604;28;20396;-76
2022/04/28 01:27:36;;;;;;;;;;;9.80;99.90;;;;;;4992508;28;19926;-77
2022/04/28 01:30:03;;;;;;;;;;;9.80;99.90;;;;;;4985639;28;20016;-76
2022/04/28 01:32:32;;;;;;;;;;;9.80;99.90;;;;;;4991904;28;19925;-76
2022/04/28 01:34:59;;;;;;;;;;;9.80;99.90;;;;;;4996232;28;19932;-77
2022/04/28 01:37:26;;;;;;;;;;;9.70;99.90;;;;;;4987974;28;19965;-76
2022/04/28 01:39:57;;;;;;;;;;;9.70;99.90;;;;;;4987615;28;19925;-76
2022/04/28 01:42:24;;;;;;;;;;;9.70;99.90;;;;;;4987721;28;20020;-76
2022/04/28 01:44:51;;;;;;;;;;;9.70;99.90;;;;;;4991868;28;20004;-76
2022/04/28 01:47:18;;;;;;;;;;;9.60;99.90;;;;;;4988374;28;19925;-76
2022/04/28 01:50:04;;;;;;;;;;;9.60;99.90;;;;;;4991605;28;19932;-76
2022/04/28 01:56:03;;;;;;;;;;;9.60;99.90;;;;;;4990275;28;19922;-76
2022/04/28 01:58:48;;;;;;;;;;;9.60;99.90;;;;;;5008023;28;20091;-76
2022/04/28 02:01:30;;;;;;;;;;;9.50;99.90;;;;;;4986823;28;20458;-76
2022/04/28 02:03:57;;;;;;;;;;;9.50;99.90;;;;;;4988793;28;19926;-77
2022/04/28 02:06:25;;;;;;;;;;;9.50;99.90;;;;;;4991426;28;20382;-76
2022/04/28 02:08:53;;;;;;;;;;;9.50;99.90;;;;;;4988514;28;19957;-77
2022/04/28 02:11:21;;;;;;;;;;;9.50;99.90;;;;;;5012352;28;19925;-77
2022/04/28 02:14:07;;;;;;;;;;;9.40;99.90;;;;;;5006221;28;19931;-76
2022/04/28 02:17:09;;;;;;;;;;;9.40;99.90;;;;;;4967145;28;19978;-76
2022/04/28 02:19:36;;;;;;;;;;;9.40;99.90;;;;;;4986853;28;19925;-77
2022/04/28 02:22:04;;;;;;;;;;;9.40;99.90;;;;;;4989285;28;19971;-76
2022/04/28 02:24:35;;;;;;;;;;;9.40;99.90;;;;;;4988237;28;19930;-76
2022/04/28 02:27:04;;;;;;;;;;;9.40;99.90;;;;;;4993632;28;19933;-76
2022/04/28 02:29:31;;;;;;;;;;;9.30;99.90;;;;;;5005189;28;19957;-76
2022/04/28 02:31:58;;;;;;;;;;;9.30;99.90;;;;;;4988113;28;20504;-77
2022/04/28 02:34:25;;;;;;;;;;;9.30;99.90;;;;;;4991893;28;19932;-76
2022/04/28 02:36:53;;;;;;;;;;;9.30;99.90;;;;;;4988345;28;19925;-76
2022/04/28 02:39:21;;;;;;;;;;;9.30;99.90;;;;;;4992055;28;19929;-76
2022/04/28 02:41:50;;;;;;;;;;;9.30;99.90;;;;;;4990311;28;19925;-76
2022/04/28 02:44:19;;;;;;;;;;;9.30;99.90;;;;;;4989805;28;19925;-76
2022/04/28 02:46:46;;;;;;;;;;;9.20;99.90;;;;;;4989270;28;19932;-77
2022/04/28 02:49:16;;;;;;;;;;;9.20;99.90;;;;;;4990744;28;20413;-76
2022/04/28 02:51:43;;;;;;;;;;;9.20;99.90;;;;;;4989137;28;19968;-76
2022/04/28 02:54:10;;;;;;;;;;;9.20;99.90;;;;;;4985738;28;19929;-77
2022/04/28 02:56:45;;;;;;;;;;;9.20;99.90;;;;;;4990182;28;19932;-77
2022/04/28 02:59:12;;;;;;;;;;;9.10;99.90;;;;;;4986303;28;19936;-76
2022/04/28 03:01:41;;;;;;;;;;;9.10;99.90;;;;;;5005352;28;19933;-76
2022/04/28 03:04:08;;;;;;;;;;;9.10;99.90;;;;;;4986049;28;19936;-76
2022/04/28 03:12:04;;;;;;;;;;;9.10;99.90;;;;;;4993923;28;20400;-76
2022/04/28 03:14:33;;;;;;;;;;;9.00;99.90;;;;;;4990910;28;19944;-76
2022/04/28 03:17:01;;;;;;;;;;;9.00;99.90;;;;;;4989121;28;19926;-77
2022/04/28 03:19:28;;;;;;;;;;;9.00;99.90;;;;;;4989489;28;19926;-76
2022/04/28 03:21:55;;;;;;;;;;;9.00;99.90;;;;;;4989752;28;20411;-76
2022/04/28 03:24:22;;;;;;;;;;;9.00;99.90;;;;;;4985384;28;20342;-76
2022/04/28 03:26:49;;;;;;;;;;;8.90;99.90;;;;;;5007983;28;20427;-76
2022/04/28 03:29:17;;;;;;;;;;;9.00;99.90;;;;;;4985222;28;20019;-76
2022/04/28 03:31:44;;;;;;;;;;;8.90;99.90;;;;;;4989148;28;19956;-77
2022/04/28 03:34:13;;;;;;;;;;;8.90;99.90;;;;;;5008289;28;19925;-76
2022/04/28 03:36:52;;;;;;;;;;;8.90;99.90;;;;;;4992345;28;19925;-77
2022/04/28 03:39:40;;;;;;;;;;;8.90;99.90;;;;;;4992291;28;21377;-78
2022/04/28 03:42:07;;;;;;;;;;;8.80;99.90;;;;;;4984021;28;20234;-77
2022/04/28 03:44:35;;;;;;;;;;;8.90;99.90;;;;;;4989285;28;20380;-78
2022/04/28 03:47:02;;;;;;;;;;;8.80;99.90;;;;;;4985993;28;19934;-78
2022/04/28 03:49:31;;;;;;;;;;;8.80;99.90;;;;;;4989732;28;19925;-76
2022/04/28 03:51:58;;;;;;;;;;;8.80;99.90;;;;;;4992525;28;19925;-77
2022/04/28 03:54:25;;;;;;;;;;;8.80;99.90;;;;;;5006707;28;20012;-77
2022/04/28 03:56:52;;;;;;;;;;;8.80;99.90;;;;;;4987406;28;19934;-77
2022/04/28 03:59:19;;;;;;;;;;;8.80;99.90;;;;;;4986646;28;19936;-77
2022/04/28 04:01:59;;;;;;;;;;;8.80;99.90;;;;;;4988732;28;19933;-76
2022/04/28 04:04:26;;;;;;;;;;;8.80;99.90;;;;;;4984464;28;19925;-77
2022/04/28 04:06:59;;;;;;;;;;;8.70;99.90;;;;;;4989659;28;19995;-76
2022/04/28 04:09:44;;;;;;;;;;;8.70;99.90;;;;;;4971973;28;19942;-76
2022/04/28 04:12:16;;;;;;;;;;;8.70;99.90;;;;;;4992043;28;19925;-75
2022/04/28 04:15:01;;;;;;;;;;;8.70;99.90;;;;;;5006744;28;19931;-76
2022/04/28 04:17:47;;;;;;;;;;;8.70;99.90;;;;;;4984094;28;19926;-76
2022/04/28 04:20:15;;;;;;;;;;;8.70;99.90;;;;;;4985446;28;19930;-76
2022/04/28 04:22:44;;;;;;;;;;;8.70;99.90;;;;;;5004120;28;19925;-76
2022/04/28 04:25:11;;;;;;;;;;;8.60;99.90;;;;;;4979860;28;19934;-76
2022/04/28 04:27:39;;;;;;;;;;;8.60;99.90;;;;;;4986849;28;20000;-76
2022/04/28 04:33:03;;;;;;;;;;;8.60;99.90;;;;;;4978414;28;19958;-76
2022/04/28 04:35:31;;;;;;;;;;;8.60;99.90;;;;;;4992699;28;19930;-75
2022/04/28 04:38:01;;;;;;;;;;;8.60;99.90;;;;;;4984590;28;19933;-77
2022/04/28 04:40:30;;;;;;;;;;;8.60;99.90;;;;;;4982536;28;21547;-76
2022/04/28 04:42:57;;;;;;;;;;;8.60;99.90;;;;;;4989761;28;20018;-76
2022/04/28 04:45:24;;;;;;;;;;;8.50;99.90;;;;;;4987428;28;20028;-77
2022/04/28 04:48:11;;;;;;;;;;;8.50;99.90;;;;;;5001703;28;20463;-77
2022/04/28 04:50:46;;;;;;;;;;;8.50;99.90;;;;;;4977868;28;19980;-77
2022/04/28 04:53:38;;;;;;;;;;;8.50;99.90;;;;;;4988354;28;20020;-78
2022/04/28 04:56:06;;;;;;;;;;;8.50;99.90;;;;;;4980742;28;19926;-75
2022/04/28 04:58:32;;;;;;;;;;;8.50;99.90;;;;;;4995295;28;19960;-80
2022/04/28 05:01:00;;;;;;;;;;;8.50;99.90;;;;;;4981776;28;20484;-78
2022/04/28 05:03:36;;;;;;;;;;;8.50;99.90;;;;;;5001096;28;20273;-78
2022/04/28 05:06:24;;;;;;;;;;;8.40;99.90;;;;;;4982784;28;20434;-78
2022/04/28 05:09:03;;;;;;;;;;;8.40;99.90;;;;;;4980875;28;19933;-77
2022/04/28 05:11:30;;;;;;;;;;;8.40;99.90;;;;;;4987888;28;19972;-78
2022/04/28 05:14:20;;;;;;;;;;;8.40;99.90;;;;;;4998274;28;19961;-78
2022/04/28 05:16:47;;;;;;;;;;;8.50;99.90;;;;;;4994846;28;19930;-78
2022/04/28 05:19:32;;;;;;;;;;;8.50;99.90;;;;;;4996401;28;20146;-78
2022/04/28 05:22:02;;;;;;;;;;;8.50;99.90;;;;;;4989258;28;19926;-76
2022/04/28 05:24:39;;;;;;;;;;;8.50;99.90;;;;;;4993485;28;19932;-77
2022/04/28 05:27:25;;;;;;;;;;;8.50;99.90;;;;;;5007926;28;20366;-77
2022/04/28 05:30:11;;;;;;;;;;;8.50;99.90;;;;;;5007667;28;19940;-76
2022/04/28 05:32:52;;;;;;;;;;;8.50;99.90;;;;;;5010416;28;19925;-76
2022/04/28 05:35:55;;;;;;;;;;;8.40;99.90;;;;;;4966699;28;20009;-76
2022/04/28 05:38:21;;;;;;;;;;;8.40;99.90;;;;;;5001249;28;19926;-75
2022/04/28 05:40:51;;;;;;;;;;;8.40;99.90;;;;;;4982180;28;19925;-76
2022/04/28 05:46:03;;;;;;;;;;;8.20;99.90;;;;;;5004857;28;19935;-76
2022/04/28 05:48:32;;;;;;;;;;;8.20;99.90;;;;;;4993363;28;19937;-76
2022/04/28 05:51:00;;;;;;;;;;;8.10;99.90;;;;;;4993486;28;19933;-76
2022/04/28 05:53:26;;;;;;;;;;;8.10;99.90;;;;;;4996813;28;19925;-75
2022/04/28 05:55:59;;;;;;;;;;;8.10;99.90;;;;;;4991830;28;20307;-76
2022/04/28 05:58:39;;;;;;;;;;;8.10;99.90;;;;;;4984246;28;19932;-76
2022/04/28 06:01:25;;;;;;;;;;;8.20;99.90;;;;;;5002289;28;20072;-76
2022/04/28 06:03:53;;;;;;;;;;;8.20;99.90;;;;;;4986199;28;20303;-75
2022/04/28 06:06:20;;;;;;;;;;;8.20;99.90;;;;;;5005318;28;19957;-76
2022/04/28 06:08:51;;;;;;;;;;;8.30;99.90;;;;;;4986246;28;19926;-76
2022/04/28 06:11:19;;;;;;;;;;;8.30;99.90;;;;;;4987886;28;20350;-76
2022/04/28 06:13:46;;;;;;;;;;;8.30;99.90;;;;;;4989016;28;19972;-76
2022/04/28 06:16:31;;;;;;;;;;;8.30;99.90;;;;;;5005423;28;19972;-76
2022/04/28 06:19:07;;;;;;;;;;;8.30;99.90;;;;;;4987808;28;19925;-76
2022/04/28 06:21:53;;;;;;;;;;;8.40;99.90;;;;;;5007820;28;19987;-76
2022/04/28 06:24:20;;;;;;;;;;;8.40;99.90;;;;;;5001834;28;20103;-76
2022/04/28 06:26:48;;;;;;;;;;;8.40;99.90;;;;;;4992023;28;19933;-76
2022/04/28 06:29:16;;;;;;;;;;;8.50;99.90;;;;;;4989540;28;20395;-76
2022/04/28 06:31:44;;;;;;;;;;;8.50;99.90;;;;;;4988370;28;19934;-75
2022/04/28 06:34:37;;;;;;;;;;;8.50;99.90;;;;;;4998615;28;19941;-76
2022/04/28 06:37:07;;;;;;;;;;;8.60;99.90;;;;;;4990227;28;19936;-75
2022/04/28 06:39:36;;;;;;;;;;;8.60;99.90;;;;;;4992662;28;20664;-77
2022/04/28 06:42:05;;;;;;;;;;;8.60;99.90;;;;;;4995121;28;19987;-76
2022/04/28 06:44:52;;;;;;;;;;;8.60;99.90;;;;;;5007267;28;19932;-76
2022/04/28 06:47:37;;;;;;;;;;;8.70;99.90;;;;;;5061578;23;19941;-93
2022/04/28 06:50:26;;;;;;;;;;;8.70;99.90;;;;;;5004508;28;19934;-91
2022/04/28 06:53:16;;;;;;;;;;;8.70;99.90;;;;;;5007093;28;20023;-91
2022/04/28 06:55:46;;;;;;;;;;;8.70;99.90;;;;;;5013040;28;19940;-91
2022/04/28 06:58:15;;;;;;;;;;;8.80;99.90;;;;;;5010059;28;19925;-91
2022/04/28 07:00:43;;;;;;;;;;;8.80;99.90;;;;;;5011657;28;19965;-92
2022/04/28 07:03:11;;;;;;;;;;;8.80;99.90;;;;;;5000755;28;19997;-91
2022/04/28 07:05:42;;;;;;;;;;;8.80;99.90;;;;;;5020711;28;19926;-94
2022/04/28 07:08:10;;;;;;;;;;;8.80;99.90;;;;;;5027191;28;19918;-92
2022/04/28 07:10:43;;;;;;;;;;;8.90;99.90;;;;;;5027699;28;19932;-92
2022/04/28 07:13:17;;;;;;;;;;;8.90;99.90;;;;;;5001086;28;21876;-91
2022/04/28 07:16:03;;;;;;;;;;;8.90;99.90;;;;;;5013934;28;20022;-92
2022/04/28 07:18:49;;;;;;;;;;;8.90;99.90;;;;;;5018765;28;19941;-91
2022/04/28 07:21:17;;;;;;;;;;;9.00;99.90;;;;;;5005701;28;19930;-92
2022/04/28 07:23:44;;;;;;;;;;;9.00;99.90;;;;;;5019474;28;19984;-92
2022/04/28 07:26:11;;;;;;;;;;;9.00;99.90;;;;;;5015756;28;19925;-92
2022/04/28 07:28:40;;;;;;;;;;;9.00;99.90;;;;;;5014302;28;19925;-93
2022/04/28 07:31:23;;;;;;;;;;;9.00;99.90;;;;;;5026203;28;19932;-93
2022/04/28 07:34:13;;;;;;;;;;;9.00;99.90;;;;;;5009959;28;19913;-92
2022/04/28 07:36:40;;;;;;;;;;;9.00;99.90;;;;;;5027714;28;19981;-93
2022/04/28 07:39:26;;;;;;;;;;;9.10;99.90;;;;;;5011817;28;19952;-92
2022/04/28 07:42:16;;;;;;;;;;;9.10;99.90;;;;;;5010413;28;19930;-92
2022/04/28 07:44:47;;;;;;;;;;;9.10;99.90;;;;;;5014796;28;19929;-91
2022/04/28 07:47:15;;;;;;;;;;;9.10;99.90;;;;;;5016955;28;20349;-92
2022/04/28 07:49:49;;;;;;;;;;;9.10;99.90;;;;;;5016421;28;19929;-92
2022/04/28 07:52:16;;;;;;;;;;;9.10;99.90;;;;;;5017614;28;19925;-91
2022/04/28 07:54:44;;;;;;;;;;;9.20;99.90;;;;;;5020838;28;19925;-92
2022/04/28 07:57:11;;;;;;;;;;;9.20;99.90;;;;;;5021758;28;19925;-92
2022/04/28 07:59:38;;;;;;;;;;;9.20;99.90;;;;;;5017651;28;19933;-91
2022/04/28 08:02:19;;;;;;;;;;;9.20;99.90;;;;;;5021615;28;19999;-92
2022/04/28 08:04:50;;;;;;;;;;;9.20;99.90;;;;;;5022242;28;19929;-93
2022/04/28 08:07:17;;;;;;;;;;;9.30;99.90;;;;;;5025592;28;20022;-91
2022/04/28 08:09:50;;;;;;;;;;;9.30;99.90;;;;;;5021173;28;19925;-92
2022/04/28 08:12:21;;;;;;;;;;;9.30;99.90;;;;;;5028004;28;19939;-91
2022/04/28 08:14:52;;;;;;;;;;;9.30;99.90;;;;;;5028185;28;19959;-93
2022/04/28 08:17:21;;;;;;;;;;;9.30;99.90;;;;;;5028386;28;19909;-90
2022/04/28 08:19:51;;;;;;;;;;;9.30;99.90;;;;;;5022873;28;20306;-92
2022/04/28 08:22:18;;;;;;;;;;;9.30;99.90;;;;;;5021055;28;19960;-93
2022/04/28 08:24:45;;;;;;;;;;;9.40;99.90;;;;;;5016799;28;19968;-93
2022/04/28 08:27:12;;;;;;;;;;;9.40;99.90;;;;;;5021884;28;19986;-93
2022/04/28 08:29:39;;;;;;;;;;;9.40;99.90;;;;;;5020798;28;20007;-91
2022/04/28 08:32:16;;;;;;;;;;;9.30;99.90;;;;;;5024299;28;20033;-92
2022/04/28 08:34:45;;;;;;;;;;;9.30;99.90;;;;;;5025462;28;19939;-94
2022/04/28 08:37:12;;;;;;;;;;;9.40;99.90;;;;;;5018908;28;19972;-93
2022/04/28 08:39:39;;;;;;;;;;;9.40;99.90;;;;;;5023428;28;19925;-93
2022/04/28 08:42:10;;;;;;;;;;;9.40;99.90;;;;;;5016710;28;19925;-92
2022/04/28 08:44:47;;;;;;;;;;;9.40;99.90;;;;;;5020333;28;19925;-93
2022/04/28 08:47:25;;;;;;;;;;;9.40;99.90;;;;;;5019784;28;19926;-93
2022/04/28 08:50:17;;;;;;;;;;;9.50;99.90;;;;;;5034823;28;21115;-93
2022/04/28 08:53:23;;;;;;;;;;;9.50;99.90;;;;;;5034573;28;19925;-93
2022/04/28 08:55:50;;;;;;;;;;;9.50;99.90;;;;;;5023080;28;19964;-94
2022/04/28 08:58:20;;;;;;;;;;;9.50;99.90;;;;;;5009976;28;19933;-93
2022/04/28 09:00:57;;;;;;;;;;;9.50;99.90;;;;;;5014257;28;20015;-94
2022/04/28 09:03:27;;;;;;;;;;;9.50;99.90;;;;;;5025830;28;19947;-93
2022/04/28 09:06:22;;;;;;;;;;;9.50;99.90;;;;;;5032802;28;19929;-93
2022/04/28 09:09:10;;;;;;;;;;;9.60;99.90;;;;;;5015524;28;19924;-92
2022/04/28 09:11:58;;;;;;;;;;;9.60;99.90;;;;;;5033315;28;19936;-93
2022/04/28 09:14:44;;;;;;;;;;;9.60;99.90;;;;;;5032908;28;20008;-93
2022/04/28 09:17:14;;;;;;;;;;;9.60;99.90;;;;;;5009283;28;19929;-93
2022/04/28 09:19:41;;;;;;;;;;;9.60;99.90;;;;;;5019956;28;19983;-93
2022/04/28 09:22:23;;;;;;;;;;;9.60;99.90;;;;;;5012417;28;19957;-92
2022/04/28 09:24:56;;;;;;;;;;;9.70;99.90;;;;;;5015693;28;19937;-93
2022/04/28 09:27:25;;;;;;;;;;;9.70;99.90;;;;;;5012504;28;19933;-95
2022/04/28 09:29:55;;;;;;;;;;;9.70;99.90;;;;;;5034421;28;19933;-93
2022/04/28 09:32:24;;;;;;;;;;;9.70;99.90;;;;;;5026098;28;19925;-89
2022/04/28 09:35:06;;;;;;;;;;;9.80;99.90;;;;;;5033350;28;20040;-93
2022/04/28 09:37:48;;;;;;;;;;;9.80;99.90;;;;;;5031649;28;19976;-92
2022/04/28 09:43:03;;;;;;;;;;;9.80;99.90;;;;;;5011837;28;19921;-93
2022/04/28 09:45:38;;;;;;;;;;;9.80;99.90;;;;;;5007957;28;19925;-93
2022/04/28 09:48:06;;;;;;;;;;;10.00;99.90;;;;;;5010133;28;20351;-92
2022/04/28 09:50:50;;;;;;;;;;;10.40;99.90;;;;;;5007212;28;19933;-92
2022/04/28 09:53:37;;;;;;;;;;;10.60;99.90;;;;;;5031029;28;19971;-93
2022/04/28 09:56:27;;;;;;;;;;;10.70;99.90;;;;;;5038545;28;19925;-94
2022/04/28 09:59:25;;;;;;;;;;;10.60;99.90;;;;;;5014373;28;19979;-93
2022/04/28 10:01:53;;;;;;;;;;;10.50;99.90;;;;;;5009921;28;19929;-94
2022/04/28 10:04:20;;;;;;;;;;;10.40;99.90;;;;;;5010458;28;19941;-93
2022/04/28 10:07:02;;;;;;;;;;;10.40;99.90;;;;;;5033143;28;20577;-93
2022/04/28 10:09:34;;;;;;;;;;;10.40;99.90;;;;;;5017484;28;19925;-92
2022/04/28 10:12:08;;;;;;;;;;;10.40;99.90;;;;;;5012614;28;19941;-94
2022/04/28 10:14:53;;;;;;;;;;;10.40;99.90;;;;;;5009099;28;19925;-93
2022/04/28 10:17:24;;;;;;;;;;;10.40;99.90;;;;;;5010722;28;20395;-93
2022/04/28 10:19:52;;;;;;;;;;;10.30;99.90;;;;;;5010409;28;20000;-92
2022/04/28 10:22:42;;;;;;;;;;;10.40;99.90;;;;;;5013278;28;19964;-94
2022/04/28 10:34:09;;;;;;;;;;;10.50;99.90;;;;;;5012941;28;19930;-92
2022/04/28 10:36:49;;;;;;;;;;;10.40;99.90;;;;;;5013087;28;19925;-93
2022/04/28 10:39:16;;;;;;;;;;;10.40;99.90;;;;;;5028059;28;19925;-92
2022/04/28 10:41:45;;;;;;;;;;;10.50;99.90;;;;;;5010510;28;19925;-93
2022/04/28 10:44:16;;;;;;;;;;;10.50;99.90;;;;;;5011167;28;20031;-93
2022/04/28 10:46:56;;;;;;;;;;;10.50;99.90;;;;;;5024017;28;19943;-92
2022/04/28 10:49:25;;;;;;;;;;;10.60;99.90;;;;;;5012926;28;21178;-92
2022/04/28 10:51:57;;;;;;;;;;;10.60;99.90;;;;;;5025144;28;19935;-93
2022/04/28 10:54:24;;;;;;;;;;;10.60;99.90;;;;;;5029806;28;20024;-92
2022/04/28 10:56:58;;;;;;;;;;;10.70;99.90;;;;;;5023889;28;19925;-93
2022/04/28 10:59:34;;;;;;;;;;;10.70;99.90;;;;;;5008527;28;19932;-92
2022/04/28 11:02:17;;;;;;;;;;;10.80;99.90;;;;;;5028176;28;19925;-94
2022/04/28 11:05:00;;;;;;;;;;;11.30;99.90;;;;;;5023015;28;19925;-94
2022/04/28 11:07:30;;;;;;;;;;;11.50;99.90;;;;;;5018561;28;19929;-93
2022/04/28 11:10:03;;;;;;;;;;;11.60;99.90;;;;;;5009334;28;19925;-94
2022/04/28 11:12:35;;;;;;;;;;;12.00;99.90;;;;;;5035075;28;19926;-92
2022/04/28 11:15:05;;;;;;;;;;;12.20;99.90;;;;;;5017071;28;22205;-94
2022/04/28 11:17:38;;;;;;;;;;;12.30;99.90;;;;;;5011654;28;19932;-94
2022/04/28 11:20:14;;;;;;;;;;;12.20;99.90;;;;;;5039278;28;20596;-93
2022/04/28 11:23:02;;;;;;;;;;;12.30;99.90;;;;;;5010146;28;20287;-94
2022/04/28 11:25:35;;;;;;;;;;;12.50;99.90;;;;;;5034424;28;20503;-93
2022/04/28 11:28:13;;;;;;;;;;;12.70;99.90;;;;;;5012787;28;20059;-95
2022/04/28 11:33:27;;;;;;;;;;;12.60;98.80;;;;;;5012840;28;19926;-94
2022/04/28 11:35:55;;;;;;;;;;;12.60;99.30;;;;;;5023901;28;20311;-93
2022/04/28 11:38:26;;;;;;;;;;;12.70;99.50;;;;;;5031516;28;19925;-93
2022/04/28 11:41:00;;;;;;;;;;;12.70;99.10;;;;;;5032214;28;19929;-95
2022/04/28 11:43:36;;;;;;;;;;;12.90;99.60;;;;;;5033283;28;19925;-93
2022/04/28 11:46:03;;;;;;;;;;;13.00;98.90;;;;;;5010441;28;19929;-94
2022/04/28 11:48:42;;;;;;;;;;;13.40;98.90;;;;;;5014574;28;19926;-93
2022/04/28 11:51:12;;;;;;;;;;;13.50;97.10;;;;;;5017975;28;19933;-92
2022/04/28 11:53:55;;;;;;;;;;;13.30;97.50;;;;;;5039563;28;20362;-93
2022/04/28 11:56:25;;;;;;;;;;;13.40;97.80;;;;;;5011337;28;19932;-93
2022/04/28 11:58:54;;;;;;;;;;;13.50;97.40;;;;;;5036530;28;19925;-93
2022/04/28 12:01:33;;;;;;;;;;;13.80;96.30;;;;;;5028887;28;20016;-95
2022/04/28 12:04:01;;;;;;;;;;;14.00;96.50;;;;;;5009521;28;20388;-93
2022/04/28 12:08:57;;;;;;;;;;;14.10;97.00;;;;;;4942255;28;19931;-79
2022/04/28 12:14:26;;;;;;;;;;;14.40;96.70;;;;;;4923513;29;19923;-78
2022/04/28 12:19:48;;;;;;;;;;;14.30;96.10;;;;;;4900541;29;19929;-76
2022/04/28 12:22:23;;;;;;;;;;;14.50;96.00;;;;;;4926387;29;19935;-77
2022/04/28 12:24:50;;;;;;;;;;;14.60;96.20;;;;;;4931612;29;19940;-79
2022/04/28 12:27:17;;;;;;;;;;;14.70;95.60;;;;;;4911095;29;19926;-81
2022/04/28 12:29:52;;;;;;;;;;;14.90;94.70;;;;;;4911577;29;19927;-79
2022/04/28 12:32:20;;;;;;;;;;;15.00;95.20;;;;;;4933987;29;20267;-79
2022/04/28 12:34:57;;;;;;;;;;;15.10;93.80;;;;;;4934146;29;19982;-79
2022/04/28 12:37:25;;;;;;;;;;;15.10;94.50;;;;;;4933061;29;20399;-79
2022/04/28 12:39:56;;;;;;;;;;;15.10;94.20;;;;;;4926393;29;20317;-80
2022/04/28 12:42:23;;;;;;;;;;;15.30;94.10;;;;;;4933434;29;19927;-79
2022/04/28 12:44:52;;;;;;;;;;;15.50;94.40;;;;;;4935951;29;19927;-80
2022/04/28 12:47:19;;;;;;;;;;;15.50;92.70;;;;;;4928703;29;19986;-81
2022/04/28 12:49:48;;;;;;;;;;;15.50;93.40;;;;;;4943822;23;20434;-78
2022/04/28 12:52:26;;;;;;;;;;;15.70;93.20;;;;;;4972496;28;20310;-79
2022/04/28 12:55:01;;;;;;;;;;;15.80;92.90;;;;;;4983038;28;20009;-81
2022/04/28 12:57:30;;;;;;;;;;;15.80;92.90;;;;;;4983904;28;20143;-81
2022/04/28 13:00:00;;;;;;;;;;;15.90;92.50;;;;;;4979010;28;19934;-81
2022/04/28 13:02:31;;;;;;;;;;;16.00;91.90;;;;;;4978887;28;19930;-81
2022/04/28 13:05:12;;;;;;;;;;;16.20;92.70;;;;;;4972591;28;19937;-81
2022/04/28 13:07:43;;;;;;;;;;;16.30;92.10;;;;;;4979786;28;19927;-82
2022/04/28 13:13:09;;;;;;;;;;;16.10;91.20;;;;;;5106080;23;19926;-81
2022/04/28 13:15:38;;;;;;;;;;;16.00;91.10;;;;;;4995150;28;19929;-81
2022/04/28 13:18:05;;;;;;;;;;;16.00;91.60;;;;;;5013352;28;19932;-81
2022/04/28 13:20:33;;;;;;;;;;;16.10;91.30;;;;;;4969986;28;19930;-81
2022/04/28 13:23:00;;;;;;;;;;;16.40;91.10;;;;;;4992318;28;19925;-80
2022/04/28 13:25:27;;;;;;;;;;;16.50;91.10;;;;;;4984906;28;20021;-80
2022/04/28 13:27:54;;;;;;;;;;;16.50;90.30;;;;;;4979825;28;21235;-80
2022/04/28 13:30:21;;;;;;;;;;;16.50;90.80;;;;;;4974062;28;20339;-80
2022/04/28 13:32:49;;;;;;;;;;;16.50;90.00;;;;;;4993662;28;19926;-78
2022/04/28 13:35:16;;;;;;;;;;;16.60;90.20;;;;;;4969423;28;19980;-79
2022/04/28 13:37:43;;;;;;;;;;;16.50;90.90;;;;;;4989169;28;19936;-79
2022/04/28 13:40:13;;;;;;;;;;;16.40;90.00;;;;;;4990712;28;20348;-78
2022/04/28 13:42:40;;;;;;;;;;;16.50;90.60;;;;;;4986741;28;19965;-79
2022/04/28 13:45:07;;;;;;;;;;;16.60;88.70;;;;;;4989327;28;19973;-77
2022/04/28 13:47:34;;;;;;;;;;;16.70;90.50;;;;;;4988169;28;20026;-79
2022/04/28 13:50:03;;;;;;;;;;;16.80;90.00;;;;;;4990976;28;19932;-80
2022/04/28 13:52:30;;;;;;;;;;;16.80;89.50;;;;;;4999291;28;20016;-80
2022/04/28 14:59:46;;;;;;;;;;;17.40;82.60;;;;;;6112514;23;19971;-80
2022/04/28 15:02:13;;;;;;;;;;;17.30;85.10;;;;;;4973728;28;20390;-81
2022/04/28 15:04:41;;;;;;;;;;;17.30;81.20;;;;;;4975541;28;20333;-81
2022/04/28 15:07:11;;;;;;;;;;;16.60;75.60;;;;;;4977051;28;19933;-82
2022/04/28 15:09:40;;;;;;;;;;;16.50;79.70;;;;;;4971429;28;19926;-81
2022/04/28 15:12:07;;;;;;;;;;;16.70;81.30;;;;;;4954394;29;19965;-82
2022/04/28 15:14:46;;;;;;;;;;;16.90;81.50;;;;;;4954896;28;19927;-81
2022/04/28 15:17:44;;;;;;;;;;;16.90;82.50;;;;;;4948705;28;20420;-81
2022/04/28 15:23:27;;;;;;;;;;;17.10;81.80;;;;;;4954568;28;19933;-81
2022/04/28 15:25:59;;;;;;;;;;;17.10;81.40;;;;;;4950276;28;19926;-81
2022/04/28 15:28:31;;;;;;;;;;;17.10;82.10;;;;;;4947392;29;19930;-81
2022/04/28 15:30:59;;;;;;;;;;;17.10;81.60;;;;;;4969053;28;19931;-81
2022/04/28 15:33:35;;;;;;;;;;;17.00;80.90;;;;;;4955251;29;19926;-82
2022/04/28 15:36:14;;;;;;;;;;;17.10;80.40;;;;;;4959204;28;19977;-82
2022/04/28 15:38:44;;;;;;;;;;;17.00;80.30;;;;;;4949243;28;19927;-81
2022/04/28 15:41:19;;;;;;;;;;;16.90;80.20;;;;;;4958205;28;19927;-81
2022/04/28 15:43:48;;;;;;;;;;;16.90;79.30;;;;;;4946932;29;19931;-79
2022/04/28 15:46:14;;;;;;;;;;;16.90;81.80;;;;;;4946741;28;19969;-78
2022/04/28 15:48:43;;;;;;;;;;;16.90;79.30;;;;;;4948275;28;20397;-79
2022/04/28 15:51:10;;;;;;;;;;;16.90;79.50;;;;;;4947837;28;19927;-78
2022/04/28 15:53:37;;;;;;;;;;;16.90;80.10;;;;;;4947456;28;19927;-79
2022/04/28 15:56:05;;;;;;;;;;;16.90;79.50;;;;;;4949315;28;19926;-79
2022/04/28 15:58:31;;;;;;;;;;;16.90;80.40;;;;;;4949536;28;19927;-78
2022/04/28 16:00:58;;;;;;;;;;;16.90;79.30;;;;;;4949585;28;20283;-78
2022/04/28 16:03:27;;;;;;;;;;;16.90;79.60;;;;;;4947737;28;19926;-78
2022/04/28 16:05:56;;;;;;;;;;;16.90;79.00;;;;;;4950400;28;20441;-79
2022/04/28 16:08:23;;;;;;;;;;;16.90;80.00;;;;;;4952203;28;19930;-79
2022/04/28 16:10:50;;;;;;;;;;;16.90;79.40;;;;;;4949244;28;20385;-79
2022/04/28 16:13:17;;;;;;;;;;;16.90;80.00;;;;;;4945342;28;19926;-80
2022/04/28 16:15:44;;;;;;;;;;;16.90;79.30;;;;;;4947279;28;19989;-81
2022/04/28 16:23:17;;;;;;;;;;;16.90;79.40;;;;;;4927106;29;20009;-79
2022/04/28 16:25:44;;;;;;;;;;;16.90;78.70;;;;;;4929369;29;19994;-80
2022/04/28 16:28:11;;;;;;;;;;;16.90;79.50;;;;;;4929303;29;19931;-79
2022/04/28 16:30:39;;;;;;;;;;;16.90;78.90;;;;;;4922299;29;19935;-79
2022/04/28 16:33:06;;;;;;;;;;;16.80;73.10;;;;;;4920863;29;19934;-75
2022/04/28 16:35:33;;;;;;;;;;;16.60;75.80;;;;;;4933674;29;19927;-76
2022/04/28 16:38:00;;;;;;;;;;;16.70;76.90;;;;;;4929540;29;20386;-75
2022/04/28 16:40:28;;;;;;;;;;;16.70;77.70;;;;;;4926642;29;19934;-76
2022/04/28 16:42:55;;;;;;;;;;;16.80;78.50;;;;;;4930871;29;20009;-78
2022/04/28 16:45:22;;;;;;;;;;;16.80;79.00;;;;;;4932634;29;20018;-76
2022/04/28 16:47:49;;;;;;;;;;;16.80;79.50;;;;;;4928064;29;21087;-77
2022/04/28 16:50:17;;;;;;;;;;;16.80;79.80;;;;;;4929875;29;19926;-76